sensor_id;sensor_type;location;lat;lon;timestamp;P1;durP1;ratioP1;P2;durP2;ratioP2
35326;SDS011;21436;52.348;20.928;2022-11-15T00:01:57;36.40;;;19.10;;
35326;SDS011;21436;52.348;20.928;2022-11-15T00:04:43;38.30;;;18.95;;
35326;SDS011;21436;52.348;20.928;2022-11-15T00:07:30;43.13;;;20.33;;
35326;SDS011;21436;52.348;20.928;2022-11-15T00:10:36;41.30;;;20.10;;
35326;SDS011;21436;52.348;20.928;2022-11-15T00:13:22;39.97;;;21.40;;
35326;SDS011;21436;52.348;20.928;2022-11-15T00:16:09;39.90;;;19.45;;
35326;SDS011;21436;52.348;20.928;2022-11-15T00:18:56;42.88;;;19.63;;
35326;SDS011;21436;52.348;20.928;2022-11-15T00:21:43;41.17;;;20.52;;
35326;SDS011;21436;52.348;20.928;2022-11-15T00:24:29;39.25;;;20.23;;
35326;SDS011;21436;52.348;20.928;2022-11-15T00:27:15;40.38;;;20.55;;
35326;SDS011;21436;52.348;20.928;2022-11-15T00:30:02;46.03;;;20.95;;
35326;SDS011;21436;52.348;20.928;2022-11-15T00:32:49;43.67;;;20.92;;
35326;SDS011;21436;52.348;20.928;2022-11-15T00:35:35;40.67;;;20.33;;
35326;SDS011;21436;52.348;20.928;2022-11-15T00:38:21;43.22;;;20.75;;
35326;SDS011;21436;52.348;20.928;2022-11-15T00:41:07;43.83;;;21.90;;
35326;SDS011;21436;52.348;20.928;2022-11-15T00:43:54;43.42;;;20.25;;
35326;SDS011;21436;52.348;20.928;2022-11-15T00:46:41;43.08;;;21.60;;
35326;SDS011;21436;52.348;20.928;2022-11-15T00:49:27;48.13;;;21.60;;
35326;SDS011;21436;52.348;20.928;2022-11-15T00:52:13;48.83;;;23.50;;
35326;SDS011;21436;52.348;20.928;2022-11-15T00:54:59;42.28;;;20.38;;
35326;SDS011;21436;52.348;20.928;2022-11-15T00:57:45;45.95;;;20.65;;
35326;SDS011;21436;52.348;20.928;2022-11-15T01:00:32;43.28;;;21.20;;
35326;SDS011;21436;52.348;20.928;2022-11-15T01:03:18;44.28;;;21.48;;
35326;SDS011;21436;52.348;20.928;2022-11-15T01:06:04;43.22;;;21.33;;
35326;SDS011;21436;52.348;20.928;2022-11-15T01:08:50;46.38;;;21.88;;
35326;SDS011;21436;52.348;20.928;2022-11-15T01:11:36;44.88;;;21.05;;
35326;SDS011;21436;52.348;20.928;2022-11-15T01:14:23;44.78;;;20.45;;
35326;SDS011;21436;52.348;20.928;2022-11-15T01:17:10;44.50;;;21.63;;
35326;SDS011;21436;52.348;20.928;2022-11-15T01:19:57;46.30;;;22.25;;
35326;SDS011;21436;52.348;20.928;2022-11-15T01:22:42;50.03;;;22.15;;
35326;SDS011;21436;52.348;20.928;2022-11-15T01:25:29;45.45;;;21.65;;
35326;SDS011;21436;52.348;20.928;2022-11-15T01:28:15;50.40;;;22.73;;
35326;SDS011;21436;52.348;20.928;2022-11-15T01:31:01;53.90;;;23.58;;
35326;SDS011;21436;52.348;20.928;2022-11-15T01:33:49;49.10;;;22.38;;
35326;SDS011;21436;52.348;20.928;2022-11-15T01:36:36;50.10;;;23.40;;
35326;SDS011;21436;52.348;20.928;2022-11-15T01:39:22;46.83;;;22.35;;
35326;SDS011;21436;52.348;20.928;2022-11-15T01:42:12;48.17;;;21.73;;
35326;SDS011;21436;52.348;20.928;2022-11-15T01:44:59;48.10;;;23.15;;
35326;SDS011;21436;52.348;20.928;2022-11-15T01:47:46;54.08;;;23.75;;
35326;SDS011;21436;52.348;20.928;2022-11-15T01:50:34;54.45;;;23.63;;
35326;SDS011;21436;52.348;20.928;2022-11-15T01:53:21;57.33;;;24.02;;
35326;SDS011;21436;52.348;20.928;2022-11-15T01:56:09;54.33;;;24.88;;
35326;SDS011;21436;52.348;20.928;2022-11-15T01:58:59;52.60;;;23.23;;
35326;SDS011;21436;52.348;20.928;2022-11-15T02:01:49;62.90;;;24.02;;
35326;SDS011;21436;52.348;20.928;2022-11-15T02:04:42;54.35;;;23.95;;
35326;SDS011;21436;52.348;20.928;2022-11-15T02:07:31;58.10;;;25.65;;
35326;SDS011;21436;52.348;20.928;2022-11-15T02:10:18;55.70;;;24.02;;
35326;SDS011;21436;52.348;20.928;2022-11-15T02:13:05;61.38;;;26.95;;
35326;SDS011;21436;52.348;20.928;2022-11-15T02:15:56;63.35;;;26.83;;
35326;SDS011;21436;52.348;20.928;2022-11-15T02:18:58;66.78;;;27.00;;
35326;SDS011;21436;52.348;20.928;2022-11-15T02:37:26;70.55;;;27.75;;
35326;SDS011;21436;52.348;20.928;2022-11-15T02:40:35;65.50;;;26.73;;
35326;SDS011;21436;52.348;20.928;2022-11-15T02:43:30;66.07;;;26.85;;
35326;SDS011;21436;52.348;20.928;2022-11-15T02:46:45;64.88;;;25.25;;
35326;SDS011;21436;52.348;20.928;2022-11-15T02:49:54;63.95;;;26.80;;
35326;SDS011;21436;52.348;20.928;2022-11-15T02:52:48;70.03;;;27.50;;
35326;SDS011;21436;52.348;20.928;2022-11-15T02:55:35;64.15;;;25.83;;
35326;SDS011;21436;52.348;20.928;2022-11-15T03:04:56;63.13;;;24.25;;
35326;SDS011;21436;52.348;20.928;2022-11-15T03:07:50;65.05;;;27.38;;
35326;SDS011;21436;52.348;20.928;2022-11-15T03:14:00;72.15;;;28.17;;
35326;SDS011;21436;52.348;20.928;2022-11-15T03:19:56;74.43;;;28.55;;
35326;SDS011;21436;52.348;20.928;2022-11-15T03:22:44;65.43;;;26.60;;
35326;SDS011;21436;52.348;20.928;2022-11-15T03:25:31;76.22;;;28.80;;
35326;SDS011;21436;52.348;20.928;2022-11-15T03:28:21;69.88;;;28.38;;
35326;SDS011;21436;52.348;20.928;2022-11-15T03:31:10;65.78;;;27.30;;
35326;SDS011;21436;52.348;20.928;2022-11-15T03:35:00;74.93;;;29.00;;
35326;SDS011;21436;52.348;20.928;2022-11-15T03:40:34;80.97;;;29.67;;
35326;SDS011;21436;52.348;20.928;2022-11-15T03:43:28;76.88;;;29.60;;
35326;SDS011;21436;52.348;20.928;2022-11-15T03:46:24;82.50;;;31.08;;
35326;SDS011;21436;52.348;20.928;2022-11-15T03:49:17;76.70;;;31.10;;
35326;SDS011;21436;52.348;20.928;2022-11-15T03:52:07;81.55;;;30.55;;
35326;SDS011;21436;52.348;20.928;2022-11-15T03:54:56;80.85;;;32.45;;
35326;SDS011;21436;52.348;20.928;2022-11-15T03:57:43;74.90;;;30.45;;
35326;SDS011;21436;52.348;20.928;2022-11-15T04:00:29;80.30;;;32.05;;
35326;SDS011;21436;52.348;20.928;2022-11-15T04:03:15;75.53;;;29.52;;
35326;SDS011;21436;52.348;20.928;2022-11-15T04:06:01;80.63;;;30.17;;
35326;SDS011;21436;52.348;20.928;2022-11-15T04:08:47;81.38;;;29.88;;
35326;SDS011;21436;52.348;20.928;2022-11-15T04:11:33;85.45;;;31.58;;
35326;SDS011;21436;52.348;20.928;2022-11-15T04:14:19;78.68;;;30.30;;
35326;SDS011;21436;52.348;20.928;2022-11-15T04:17:05;80.70;;;30.05;;
35326;SDS011;21436;52.348;20.928;2022-11-15T04:19:52;78.85;;;29.40;;
35326;SDS011;21436;52.348;20.928;2022-11-15T04:22:57;85.00;;;33.00;;
35326;SDS011;21436;52.348;20.928;2022-11-15T04:26:14;85.22;;;30.33;;
35326;SDS011;21436;52.348;20.928;2022-11-15T04:29:02;84.70;;;30.73;;
35326;SDS011;21436;52.348;20.928;2022-11-15T04:32:07;82.47;;;32.00;;
35326;SDS011;21436;52.348;20.928;2022-11-15T04:34:53;81.35;;;31.17;;
35326;SDS011;21436;52.348;20.928;2022-11-15T04:37:39;90.38;;;30.75;;
35326;SDS011;21436;52.348;20.928;2022-11-15T04:43:19;75.90;;;30.33;;
35326;SDS011;21436;52.348;20.928;2022-11-15T04:46:05;86.45;;;31.95;;
35326;SDS011;21436;52.348;20.928;2022-11-15T04:48:52;74.88;;;29.08;;
35326;SDS011;21436;52.348;20.928;2022-11-15T04:51:43;82.20;;;31.27;;
35326;SDS011;21436;52.348;20.928;2022-11-15T04:54:29;84.20;;;30.88;;
35326;SDS011;21436;52.348;20.928;2022-11-15T04:57:15;91.43;;;31.60;;
35326;SDS011;21436;52.348;20.928;2022-11-15T05:00:05;84.88;;;30.52;;
35326;SDS011;21436;52.348;20.928;2022-11-15T05:02:52;97.68;;;32.88;;
35326;SDS011;21436;52.348;20.928;2022-11-15T05:05:57;95.00;;;32.22;;
35326;SDS011;21436;52.348;20.928;2022-11-15T05:08:43;83.57;;;29.80;;
35326;SDS011;21436;52.348;20.928;2022-11-15T05:11:29;91.50;;;31.63;;
35326;SDS011;21436;52.348;20.928;2022-11-15T05:14:15;94.15;;;33.83;;
35326;SDS011;21436;52.348;20.928;2022-11-15T05:17:01;85.60;;;29.10;;
35326;SDS011;21436;52.348;20.928;2022-11-15T05:19:47;94.30;;;32.08;;
35326;SDS011;21436;52.348;20.928;2022-11-15T05:22:34;91.68;;;31.13;;
35326;SDS011;21436;52.348;20.928;2022-11-15T05:25:19;97.57;;;31.25;;
35326;SDS011;21436;52.348;20.928;2022-11-15T05:28:06;86.70;;;30.60;;
35326;SDS011;21436;52.348;20.928;2022-11-15T05:30:51;92.45;;;31.80;;
35326;SDS011;21436;52.348;20.928;2022-11-15T05:33:38;93.65;;;32.15;;
35326;SDS011;21436;52.348;20.928;2022-11-15T05:39:23;86.53;;;31.58;;
35326;SDS011;21436;52.348;20.928;2022-11-15T05:42:11;95.97;;;30.75;;
35326;SDS011;21436;52.348;20.928;2022-11-15T05:45:00;85.55;;;30.58;;
35326;SDS011;21436;52.348;20.928;2022-11-15T05:47:49;89.97;;;30.70;;
35326;SDS011;21436;52.348;20.928;2022-11-15T05:50:36;91.22;;;30.52;;
35326;SDS011;21436;52.348;20.928;2022-11-15T05:53:24;88.50;;;30.35;;
35326;SDS011;21436;52.348;20.928;2022-11-15T05:56:11;85.93;;;28.92;;
35326;SDS011;21436;52.348;20.928;2022-11-15T05:58:57;89.95;;;29.88;;
35326;SDS011;21436;52.348;20.928;2022-11-15T06:01:45;82.80;;;30.20;;
35326;SDS011;21436;52.348;20.928;2022-11-15T06:04:33;91.43;;;30.55;;
35326;SDS011;21436;52.348;20.928;2022-11-15T06:07:20;87.00;;;29.88;;
35326;SDS011;21436;52.348;20.928;2022-11-15T06:10:07;84.00;;;28.42;;
35326;SDS011;21436;52.348;20.928;2022-11-15T06:13:00;82.18;;;27.77;;
35326;SDS011;21436;52.348;20.928;2022-11-15T06:15:47;84.20;;;28.60;;
35326;SDS011;21436;52.348;20.928;2022-11-15T06:18:33;83.28;;;28.75;;
35326;SDS011;21436;52.348;20.928;2022-11-15T06:21:20;76.63;;;27.48;;
35326;SDS011;21436;52.348;20.928;2022-11-15T06:24:06;84.97;;;29.58;;
35326;SDS011;21436;52.348;20.928;2022-11-15T06:26:52;85.75;;;28.15;;
35326;SDS011;21436;52.348;20.928;2022-11-15T06:29:39;79.60;;;28.10;;
35326;SDS011;21436;52.348;20.928;2022-11-15T06:32:24;85.70;;;28.73;;
35326;SDS011;21436;52.348;20.928;2022-11-15T06:35:11;84.25;;;27.50;;
35326;SDS011;21436;52.348;20.928;2022-11-15T06:38:01;82.95;;;28.27;;
35326;SDS011;21436;52.348;20.928;2022-11-15T06:40:48;80.35;;;29.08;;
35326;SDS011;21436;52.348;20.928;2022-11-15T06:43:35;83.07;;;27.88;;
35326;SDS011;21436;52.348;20.928;2022-11-15T06:46:22;86.50;;;29.95;;
35326;SDS011;21436;52.348;20.928;2022-11-15T06:49:08;85.97;;;27.48;;
35326;SDS011;21436;52.348;20.928;2022-11-15T06:51:54;91.13;;;27.88;;
35326;SDS011;21436;52.348;20.928;2022-11-15T06:54:39;94.93;;;28.55;;
35326;SDS011;21436;52.348;20.928;2022-11-15T06:57:26;76.53;;;28.02;;
35326;SDS011;21436;52.348;20.928;2022-11-15T07:00:12;84.88;;;27.05;;
35326;SDS011;21436;52.348;20.928;2022-11-15T07:03:00;87.75;;;27.55;;
35326;SDS011;21436;52.348;20.928;2022-11-15T07:05:53;87.10;;;28.52;;
35326;SDS011;21436;52.348;20.928;2022-11-15T07:08:40;83.45;;;27.60;;
35326;SDS011;21436;52.348;20.928;2022-11-15T07:11:27;89.07;;;27.58;;
35326;SDS011;21436;52.348;20.928;2022-11-15T07:14:13;82.88;;;24.73;;
35326;SDS011;21436;52.348;20.928;2022-11-15T07:16:59;70.57;;;24.60;;
35326;SDS011;21436;52.348;20.928;2022-11-15T07:19:46;72.53;;;24.33;;
35326;SDS011;21436;52.348;20.928;2022-11-15T07:22:32;71.30;;;25.50;;
35326;SDS011;21436;52.348;20.928;2022-11-15T07:25:18;73.57;;;25.00;;
35326;SDS011;21436;52.348;20.928;2022-11-15T07:28:04;77.22;;;25.55;;
35326;SDS011;21436;52.348;20.928;2022-11-15T07:30:51;71.07;;;24.98;;
35326;SDS011;21436;52.348;20.928;2022-11-15T07:33:36;78.30;;;26.20;;
35326;SDS011;21436;52.348;20.928;2022-11-15T07:36:23;71.13;;;25.00;;
35326;SDS011;21436;52.348;20.928;2022-11-15T07:39:09;76.45;;;26.05;;
35326;SDS011;21436;52.348;20.928;2022-11-15T07:41:55;76.47;;;24.55;;
35326;SDS011;21436;52.348;20.928;2022-11-15T07:45:01;74.53;;;24.85;;
35326;SDS011;21436;52.348;20.928;2022-11-15T07:47:48;77.22;;;27.15;;
35326;SDS011;21436;52.348;20.928;2022-11-15T07:50:34;76.38;;;26.65;;
35326;SDS011;21436;52.348;20.928;2022-11-15T07:53:21;75.10;;;25.33;;
35326;SDS011;21436;52.348;20.928;2022-11-15T07:56:07;79.70;;;26.73;;
35326;SDS011;21436;52.348;20.928;2022-11-15T07:58:53;87.53;;;28.25;;
35326;SDS011;21436;52.348;20.928;2022-11-15T08:01:40;80.65;;;27.50;;
35326;SDS011;21436;52.348;20.928;2022-11-15T08:04:26;75.38;;;26.90;;
35326;SDS011;21436;52.348;20.928;2022-11-15T08:07:12;75.90;;;25.80;;
35326;SDS011;21436;52.348;20.928;2022-11-15T08:09:59;77.00;;;27.17;;
35326;SDS011;21436;52.348;20.928;2022-11-15T08:12:46;79.25;;;25.55;;
35326;SDS011;21436;52.348;20.928;2022-11-15T08:15:33;82.53;;;27.15;;
35326;SDS011;21436;52.348;20.928;2022-11-15T08:18:19;80.20;;;26.13;;
35326;SDS011;21436;52.348;20.928;2022-11-15T08:21:08;75.32;;;27.70;;
35326;SDS011;21436;52.348;20.928;2022-11-15T08:24:02;80.25;;;26.30;;
35326;SDS011;21436;52.348;20.928;2022-11-15T08:26:48;74.88;;;24.10;;
35326;SDS011;21436;52.348;20.928;2022-11-15T08:29:34;66.45;;;24.17;;
35326;SDS011;21436;52.348;20.928;2022-11-15T08:32:22;71.55;;;25.48;;
35326;SDS011;21436;52.348;20.928;2022-11-15T08:35:07;70.03;;;25.45;;
35326;SDS011;21436;52.348;20.928;2022-11-15T08:37:54;62.05;;;24.15;;
35326;SDS011;21436;52.348;20.928;2022-11-15T08:40:40;60.67;;;24.48;;
35326;SDS011;21436;52.348;20.928;2022-11-15T08:43:27;66.80;;;24.48;;
35326;SDS011;21436;52.348;20.928;2022-11-15T08:46:13;66.53;;;24.55;;
35326;SDS011;21436;52.348;20.928;2022-11-15T08:48:59;71.60;;;25.13;;
35326;SDS011;21436;52.348;20.928;2022-11-15T08:51:45;70.25;;;24.25;;
35326;SDS011;21436;52.348;20.928;2022-11-15T08:54:32;64.07;;;24.05;;
35326;SDS011;21436;52.348;20.928;2022-11-15T08:57:17;65.85;;;25.17;;
35326;SDS011;21436;52.348;20.928;2022-11-15T09:00:04;63.95;;;23.73;;
35326;SDS011;21436;52.348;20.928;2022-11-15T09:02:51;60.03;;;23.15;;
35326;SDS011;21436;52.348;20.928;2022-11-15T09:05:37;64.72;;;25.45;;
35326;SDS011;21436;52.348;20.928;2022-11-15T09:08:24;71.53;;;25.35;;
35326;SDS011;21436;52.348;20.928;2022-11-15T09:11:31;70.50;;;24.13;;
35326;SDS011;21436;52.348;20.928;2022-11-15T09:14:17;66.38;;;25.23;;
35326;SDS011;21436;52.348;20.928;2022-11-15T09:17:06;67.15;;;24.95;;
35326;SDS011;21436;52.348;20.928;2022-11-15T09:19:53;69.47;;;26.30;;
35326;SDS011;21436;52.348;20.928;2022-11-15T09:22:40;70.65;;;25.48;;
35326;SDS011;21436;52.348;20.928;2022-11-15T09:25:26;73.00;;;25.08;;
35326;SDS011;21436;52.348;20.928;2022-11-15T09:28:12;69.47;;;24.60;;
35326;SDS011;21436;52.348;20.928;2022-11-15T09:30:59;67.00;;;25.02;;
35326;SDS011;21436;52.348;20.928;2022-11-15T09:33:46;68.55;;;25.17;;
35326;SDS011;21436;52.348;20.928;2022-11-15T09:36:32;64.47;;;24.85;;
35326;SDS011;21436;52.348;20.928;2022-11-15T09:39:18;66.28;;;25.20;;
35326;SDS011;21436;52.348;20.928;2022-11-15T09:42:12;70.32;;;24.85;;
35326;SDS011;21436;52.348;20.928;2022-11-15T09:45:18;74.85;;;26.27;;
35326;SDS011;21436;52.348;20.928;2022-11-15T09:51:35;83.05;;;28.42;;
35326;SDS011;21436;52.348;20.928;2022-11-15T09:54:33;69.32;;;26.65;;
35326;SDS011;21436;52.348;20.928;2022-11-15T09:57:31;70.38;;;26.25;;
35326;SDS011;21436;52.348;20.928;2022-11-15T10:05:46;69.05;;;26.65;;
35326;SDS011;21436;52.348;20.928;2022-11-15T10:11:23;70.47;;;27.00;;
35326;SDS011;21436;52.348;20.928;2022-11-15T10:14:10;69.40;;;27.38;;
35326;SDS011;21436;52.348;20.928;2022-11-15T10:20:27;76.10;;;26.83;;
35326;SDS011;21436;52.348;20.928;2022-11-15T10:22:49;65.45;;;26.33;;
35326;SDS011;21436;52.348;20.928;2022-11-15T10:25:19;78.72;;;27.48;;
35326;SDS011;21436;52.348;20.928;2022-11-15T10:28:17;73.20;;;29.40;;
35326;SDS011;21436;52.348;20.928;2022-11-15T10:30:57;69.35;;;26.30;;
35326;SDS011;21436;52.348;20.928;2022-11-15T10:33:38;83.00;;;27.90;;
35326;SDS011;21436;52.348;20.928;2022-11-15T10:41:17;64.20;;;27.40;;
35326;SDS011;21436;52.348;20.928;2022-11-15T10:46:34;71.88;;;27.23;;
35326;SDS011;21436;52.348;20.928;2022-11-15T10:51:47;71.63;;;26.70;;
35326;SDS011;21436;52.348;20.928;2022-11-15T10:54:59;68.93;;;26.93;;
35326;SDS011;21436;52.348;20.928;2022-11-15T10:57:15;70.75;;;26.98;;
35326;SDS011;21436;52.348;20.928;2022-11-15T11:00:26;75.60;;;29.83;;
35326;SDS011;21436;52.348;20.928;2022-11-15T11:02:39;76.40;;;29.45;;
35326;SDS011;21436;52.348;20.928;2022-11-15T11:10:58;72.70;;;28.00;;
35326;SDS011;21436;52.348;20.928;2022-11-15T11:13:33;75.07;;;30.10;;
35326;SDS011;21436;52.348;20.928;2022-11-15T11:16:09;77.30;;;29.38;;
35326;SDS011;21436;52.348;20.928;2022-11-15T11:21:35;82.28;;;28.17;;
35326;SDS011;21436;52.348;20.928;2022-11-15T11:24:17;74.80;;;30.40;;
35326;SDS011;21436;52.348;20.928;2022-11-15T11:27:08;73.32;;;29.35;;
35326;SDS011;21436;52.348;20.928;2022-11-15T11:30:10;78.18;;;28.63;;
35326;SDS011;21436;52.348;20.928;2022-11-15T11:38:23;77.53;;;29.33;;
35326;SDS011;21436;52.348;20.928;2022-11-15T11:41:02;77.45;;;28.23;;
35326;SDS011;21436;52.348;20.928;2022-11-15T11:43:57;79.20;;;29.40;;
35326;SDS011;21436;52.348;20.928;2022-11-15T11:46:49;78.07;;;29.25;;
35326;SDS011;21436;52.348;20.928;2022-11-15T11:52:12;78.70;;;29.05;;
35326;SDS011;21436;52.348;20.928;2022-11-15T11:55:11;89.53;;;31.63;;
35326;SDS011;21436;52.348;20.928;2022-11-15T11:58:25;79.18;;;30.02;;
35326;SDS011;21436;52.348;20.928;2022-11-15T12:00:46;80.00;;;29.05;;
35326;SDS011;21436;52.348;20.928;2022-11-15T12:04:05;81.22;;;30.08;;
35326;SDS011;21436;52.348;20.928;2022-11-15T12:09:04;67.45;;;27.75;;
35326;SDS011;21436;52.348;20.928;2022-11-15T12:14:41;71.13;;;27.30;;
35326;SDS011;21436;52.348;20.928;2022-11-15T12:17:21;70.85;;;27.95;;
35326;SDS011;21436;52.348;20.928;2022-11-15T12:20:02;77.22;;;30.65;;
35326;SDS011;21436;52.348;20.928;2022-11-15T12:25:15;79.63;;;30.73;;
35326;SDS011;21436;52.348;20.928;2022-11-15T12:33:32;76.85;;;30.95;;
35326;SDS011;21436;52.348;20.928;2022-11-15T12:36:04;82.97;;;31.02;;
35326;SDS011;21436;52.348;20.928;2022-11-15T12:43:54;72.32;;;29.00;;
35326;SDS011;21436;52.348;20.928;2022-11-15T12:49:03;71.95;;;28.27;;
35326;SDS011;21436;52.348;20.928;2022-11-15T13:02:40;83.15;;;31.75;;
35326;SDS011;21436;52.348;20.928;2022-11-15T13:17:58;73.93;;;28.80;;
35326;SDS011;21436;52.348;20.928;2022-11-15T13:20:28;77.82;;;28.45;;
35326;SDS011;21436;52.348;20.928;2022-11-15T13:30:59;75.63;;;28.40;;
35326;SDS011;21436;52.348;20.928;2022-11-15T13:33:45;73.82;;;28.67;;
35326;SDS011;21436;52.348;20.928;2022-11-15T13:36:14;86.05;;;30.05;;
35326;SDS011;21436;52.348;20.928;2022-11-15T13:38:45;81.13;;;30.05;;
35326;SDS011;21436;52.348;20.928;2022-11-15T13:41:35;85.60;;;28.33;;
35326;SDS011;21436;52.348;20.928;2022-11-15T13:44:03;77.53;;;29.10;;
35326;SDS011;21436;52.348;20.928;2022-11-15T13:46:32;80.05;;;29.05;;
35326;SDS011;21436;52.348;20.928;2022-11-15T13:49:00;95.18;;;30.38;;
35326;SDS011;21436;52.348;20.928;2022-11-15T13:51:38;90.38;;;31.27;;
35326;SDS011;21436;52.348;20.928;2022-11-15T13:56:49;81.32;;;30.42;;
35326;SDS011;21436;52.348;20.928;2022-11-15T14:02:15;73.30;;;26.58;;
35326;SDS011;21436;52.348;20.928;2022-11-15T14:05:05;76.50;;;27.27;;
35326;SDS011;21436;52.348;20.928;2022-11-15T14:07:52;76.63;;;26.85;;
35326;SDS011;21436;52.348;20.928;2022-11-15T14:10:28;77.40;;;30.25;;
35326;SDS011;21436;52.348;20.928;2022-11-15T14:12:58;84.70;;;27.88;;
35326;SDS011;21436;52.348;20.928;2022-11-15T14:15:35;77.75;;;30.95;;
35326;SDS011;21436;52.348;20.928;2022-11-15T14:18:05;84.70;;;28.27;;
35326;SDS011;21436;52.348;20.928;2022-11-15T14:20:38;90.25;;;30.38;;
35326;SDS011;21436;52.348;20.928;2022-11-15T14:25:54;84.57;;;30.88;;
35326;SDS011;21436;52.348;20.928;2022-11-15T14:30:52;90.85;;;32.05;;
35326;SDS011;21436;52.348;20.928;2022-11-15T14:33:28;98.32;;;32.38;;
35326;SDS011;21436;52.348;20.928;2022-11-15T14:36:19;106.22;;;35.72;;
35326;SDS011;21436;52.348;20.928;2022-11-15T14:38:48;119.78;;;39.83;;
35326;SDS011;21436;52.348;20.928;2022-11-15T14:43:45;148.88;;;48.88;;
35326;SDS011;21436;52.348;20.928;2022-11-15T14:46:12;130.27;;;47.83;;
35326;SDS011;21436;52.348;20.928;2022-11-15T14:48:40;191.63;;;67.13;;
35326;SDS011;21436;52.348;20.928;2022-11-15T14:51:15;107.85;;;38.78;;
35326;SDS011;21436;52.348;20.928;2022-11-15T14:53:45;102.63;;;35.78;;
35326;SDS011;21436;52.348;20.928;2022-11-15T14:56:12;101.88;;;36.85;;
35326;SDS011;21436;52.348;20.928;2022-11-15T14:58:40;98.63;;;36.75;;
35326;SDS011;21436;52.348;20.928;2022-11-15T15:03:38;142.95;;;57.28;;
35326;SDS011;21436;52.348;20.928;2022-11-15T15:06:05;110.25;;;40.88;;
35326;SDS011;21436;52.348;20.928;2022-11-15T15:08:33;94.97;;;34.45;;
35326;SDS011;21436;52.348;20.928;2022-11-15T15:11:01;92.72;;;32.50;;
35326;SDS011;21436;52.348;20.928;2022-11-15T15:13:28;94.32;;;31.88;;
35326;SDS011;21436;52.348;20.928;2022-11-15T15:15:57;95.90;;;32.33;;
35326;SDS011;21436;52.348;20.928;2022-11-15T15:18:25;96.57;;;32.33;;
35326;SDS011;21436;52.348;20.928;2022-11-15T15:20:56;90.90;;;31.63;;
35326;SDS011;21436;52.348;20.928;2022-11-15T15:23:30;104.28;;;32.83;;
35326;SDS011;21436;52.348;20.928;2022-11-15T15:25:57;96.45;;;33.30;;
35326;SDS011;21436;52.348;20.928;2022-11-15T15:28:25;107.20;;;32.63;;
35326;SDS011;21436;52.348;20.928;2022-11-15T15:31:00;102.40;;;31.58;;
35326;SDS011;21436;52.348;20.928;2022-11-15T15:33:28;90.82;;;30.88;;
35326;SDS011;21436;52.348;20.928;2022-11-15T15:35:56;91.20;;;28.75;;
35326;SDS011;21436;52.348;20.928;2022-11-15T15:38:23;89.43;;;30.42;;
35326;SDS011;21436;52.348;20.928;2022-11-15T15:40:51;98.38;;;29.40;;
35326;SDS011;21436;52.348;20.928;2022-11-15T15:43:18;92.38;;;28.48;;
35326;SDS011;21436;52.348;20.928;2022-11-15T15:45:46;84.65;;;28.60;;
35326;SDS011;21436;52.348;20.928;2022-11-15T15:48:14;98.07;;;31.00;;
35326;SDS011;21436;52.348;20.928;2022-11-15T15:50:43;95.80;;;29.35;;
35326;SDS011;21436;52.348;20.928;2022-11-15T15:53:11;83.80;;;28.98;;
35326;SDS011;21436;52.348;20.928;2022-11-15T15:55:39;106.18;;;29.10;;
35326;SDS011;21436;52.348;20.928;2022-11-15T15:58:07;87.32;;;27.95;;
35326;SDS011;21436;52.348;20.928;2022-11-15T16:00:35;83.85;;;28.50;;
35326;SDS011;21436;52.348;20.928;2022-11-15T16:03:04;86.07;;;28.63;;
35326;SDS011;21436;52.348;20.928;2022-11-15T16:05:31;86.28;;;29.70;;
35326;SDS011;21436;52.348;20.928;2022-11-15T16:07:59;85.07;;;28.02;;
35326;SDS011;21436;52.348;20.928;2022-11-15T16:10:32;85.90;;;27.20;;
35326;SDS011;21436;52.348;20.928;2022-11-15T16:13:03;78.47;;;27.85;;
35326;SDS011;21436;52.348;20.928;2022-11-15T16:15:31;87.35;;;29.48;;
35326;SDS011;21436;52.348;20.928;2022-11-15T16:17:59;78.95;;;26.27;;
35326;SDS011;21436;52.348;20.928;2022-11-15T16:20:38;75.57;;;23.98;;
35326;SDS011;21436;52.348;20.928;2022-11-15T16:23:14;79.87;;;24.63;;
35326;SDS011;21436;52.348;20.928;2022-11-15T16:25:45;79.15;;;23.63;;
35326;SDS011;21436;52.348;20.928;2022-11-15T16:28:18;83.00;;;25.07;;
35326;SDS011;21436;52.348;20.928;2022-11-15T16:31:10;85.82;;;26.80;;
35326;SDS011;21436;52.348;20.928;2022-11-15T16:33:39;78.47;;;24.08;;
35326;SDS011;21436;52.348;20.928;2022-11-15T16:36:30;86.75;;;25.83;;
35326;SDS011;21436;52.348;20.928;2022-11-15T16:38:57;80.25;;;23.67;;
35326;SDS011;21436;52.348;20.928;2022-11-15T16:41:25;93.60;;;25.52;;
35326;SDS011;21436;52.348;20.928;2022-11-15T16:43:53;94.07;;;26.90;;
35326;SDS011;21436;52.348;20.928;2022-11-15T16:46:22;77.05;;;24.77;;
35326;SDS011;21436;52.348;20.928;2022-11-15T16:48:51;79.75;;;25.60;;
35326;SDS011;21436;52.348;20.928;2022-11-15T16:51:20;96.15;;;26.88;;
35326;SDS011;21436;52.348;20.928;2022-11-15T16:53:48;81.95;;;24.48;;
35326;SDS011;21436;52.348;20.928;2022-11-15T16:58:46;76.70;;;26.92;;
35326;SDS011;21436;52.348;20.928;2022-11-15T17:01:22;87.63;;;27.70;;
35326;SDS011;21436;52.348;20.928;2022-11-15T17:03:51;88.88;;;27.63;;
35326;SDS011;21436;52.348;20.928;2022-11-15T17:06:18;93.05;;;27.70;;
35326;SDS011;21436;52.348;20.928;2022-11-15T17:08:46;83.57;;;25.77;;
35326;SDS011;21436;52.348;20.928;2022-11-15T17:11:14;88.20;;;26.30;;
35326;SDS011;21436;52.348;20.928;2022-11-15T17:13:46;88.25;;;26.10;;
35326;SDS011;21436;52.348;20.928;2022-11-15T17:16:16;89.10;;;24.58;;
35326;SDS011;21436;52.348;20.928;2022-11-15T17:18:49;88.13;;;24.20;;
35326;SDS011;21436;52.348;20.928;2022-11-15T17:21:18;79.97;;;24.45;;
35326;SDS011;21436;52.348;20.928;2022-11-15T17:23:47;97.30;;;27.35;;
35326;SDS011;21436;52.348;20.928;2022-11-15T17:26:14;79.43;;;25.98;;
35326;SDS011;21436;52.348;20.928;2022-11-15T17:29:03;86.20;;;26.25;;
35326;SDS011;21436;52.348;20.928;2022-11-15T17:31:34;83.63;;;25.45;;
35326;SDS011;21436;52.348;20.928;2022-11-15T17:34:02;89.05;;;28.27;;
35326;SDS011;21436;52.348;20.928;2022-11-15T17:36:31;92.90;;;28.80;;
35326;SDS011;21436;52.348;20.928;2022-11-15T17:39:00;75.00;;;25.75;;
35326;SDS011;21436;52.348;20.928;2022-11-15T17:41:27;85.07;;;25.50;;
35326;SDS011;21436;52.348;20.928;2022-11-15T17:43:56;90.25;;;29.25;;
35326;SDS011;21436;52.348;20.928;2022-11-15T17:46:24;84.10;;;26.23;;
35326;SDS011;21436;52.348;20.928;2022-11-15T17:48:52;90.57;;;26.85;;
35326;SDS011;21436;52.348;20.928;2022-11-15T17:51:21;86.35;;;25.52;;
35326;SDS011;21436;52.348;20.928;2022-11-15T17:53:50;90.10;;;26.27;;
35326;SDS011;21436;52.348;20.928;2022-11-15T17:56:19;82.43;;;22.98;;
35326;SDS011;21436;52.348;20.928;2022-11-15T17:58:48;79.25;;;23.25;;
35326;SDS011;21436;52.348;20.928;2022-11-15T18:01:24;76.65;;;23.88;;
35326;SDS011;21436;52.348;20.928;2022-11-15T18:03:54;79.28;;;23.75;;
35326;SDS011;21436;52.348;20.928;2022-11-15T18:06:23;70.50;;;23.27;;
35326;SDS011;21436;52.348;20.928;2022-11-15T18:08:51;76.68;;;23.33;;